createdAt,value
2023-04-22T00:00:30.779Z,48.80
2023-04-22T00:02:32.639Z,48.80
2023-04-22T00:04:34.818Z,48.80
2023-04-22T00:06:36.865Z,48.80
2023-04-22T00:08:38.660Z,48.80
2023-04-22T00:10:40.468Z,48.80
2023-04-22T00:12:42.243Z,48.80
2023-04-22T00:14:44.052Z,48.70
2023-04-22T00:16:45.912Z,49.30
2023-04-22T00:18:47.650Z,48.80
2023-04-22T00:20:49.457Z,48.70
2023-04-22T00:22:51.186Z,48.70
2023-04-22T00:24:52.993Z,48.70
2023-04-22T00:26:54.869Z,48.70
2023-04-22T00:28:56.895Z,48.70
2023-04-22T00:30:58.784Z,48.70
2023-04-22T00:33:00.651Z,48.70
2023-04-22T00:35:02.723Z,48.70
2023-04-22T00:37:04.531Z,48.70
2023-04-22T00:39:06.306Z,48.60
2023-04-22T00:41:08.443Z,48.50
2023-04-22T00:43:11.020Z,48.60
2023-04-22T00:45:14.972Z,48.60
2023-04-22T00:47:17.177Z,48.60
2023-04-22T00:49:19.921Z,48.60
2023-04-22T00:51:21.733Z,48.50
2023-04-22T00:53:23.499Z,48.60
2023-04-22T00:55:25.294Z,48.60
2023-04-22T00:57:27.150Z,48.50
2023-04-22T00:59:29.038Z,48.50
2023-04-22T01:01:30.987Z,48.50
2023-04-22T01:03:33.469Z,48.50
2023-04-22T01:05:35.497Z,48.40
2023-04-22T01:07:37.368Z,48.50
2023-04-22T01:09:40.022Z,48.50
2023-04-22T01:11:42.223Z,48.40
2023-04-22T01:13:44.038Z,48.40
2023-04-22T01:15:45.969Z,48.40
2023-04-22T01:17:47.860Z,48.40
2023-04-22T01:19:49.742Z,48.40
2023-04-22T01:21:51.908Z,48.40
2023-04-22T01:23:53.842Z,48.40
2023-04-22T01:25:55.955Z,48.40
2023-04-22T01:27:58.245Z,48.30
2023-04-22T01:30:00.153Z,48.40
2023-04-22T01:32:02.880Z,48.30
2023-04-22T01:34:04.781Z,48.40
2023-04-22T01:36:06.793Z,48.30
2023-04-22T01:38:09.291Z,48.40
2023-04-22T01:40:11.303Z,48.30
2023-04-22T01:42:13.268Z,48.30
2023-04-22T01:44:15.132Z,48.40
2023-04-22T01:46:17.450Z,48.40
2023-04-22T01:48:19.941Z,48.40
2023-04-22T01:50:22.340Z,48.30
2023-04-22T01:52:24.122Z,48.30
2023-04-22T01:54:25.949Z,48.30
2023-04-22T01:56:27.765Z,48.30
2023-04-22T01:58:29.987Z,48.30
2023-04-22T02:00:32.692Z,48.40
2023-04-22T02:02:34.580Z,48.50
2023-04-22T02:04:36.714Z,48.50
2023-04-22T02:06:38.586Z,48.50
2023-04-22T02:08:40.845Z,48.60
2023-04-22T02:10:42.616Z,48.60
2023-04-22T02:12:44.423Z,48.60
2023-04-22T02:14:48.632Z,48.80
2023-04-22T02:16:50.419Z,48.80
2023-04-22T02:18:52.194Z,48.80
2023-04-22T02:20:54.028Z,48.80
2023-04-22T02:22:55.774Z,48.70
2023-04-22T02:24:57.600Z,48.70
2023-04-22T02:26:59.444Z,48.60
2023-04-22T02:29:01.708Z,48.70
2023-04-22T02:31:03.510Z,48.80
2023-04-22T02:33:05.420Z,48.70
2023-04-22T02:35:07.447Z,48.60
2023-04-22T02:37:09.402Z,48.70
2023-04-22T02:39:11.275Z,48.60
2023-04-22T02:41:13.055Z,48.60
2023-04-22T02:43:16.972Z,48.60
2023-04-22T02:45:19.372Z,48.50
2023-04-22T02:47:21.370Z,48.50
2023-04-22T02:49:23.680Z,48.50
2023-04-22T02:51:25.505Z,48.50
2023-04-22T02:53:27.431Z,48.50
2023-04-22T02:55:29.236Z,48.50
2023-04-22T02:57:31.023Z,48.50
2023-04-22T02:59:32.949Z,48.50
2023-04-22T03:01:34.762Z,48.50
2023-04-22T03:03:38.927Z,48.40
2023-04-22T03:05:43.199Z,48.50
2023-04-22T03:07:45.197Z,48.40
2023-04-22T03:09:47.005Z,48.40
2023-04-22T03:11:48.784Z,48.40
2023-04-22T03:13:50.933Z,48.40
2023-04-22T03:15:52.771Z,48.40
2023-04-22T03:17:54.571Z,48.40
2023-04-22T03:19:57.981Z,48.40
2023-04-22T03:21:59.789Z,48.40
2023-04-22T03:24:01.659Z,48.40
2023-04-22T03:26:06.524Z,48.40
2023-04-22T03:28:08.286Z,48.40
2023-04-22T03:30:10.258Z,48.40
2023-04-22T03:32:12.097Z,48.40
2023-04-22T03:34:14.016Z,48.40
2023-04-22T03:36:16.962Z,48.40
2023-04-22T03:38:18.833Z,48.40
2023-04-22T03:40:20.881Z,48.40
2023-04-22T03:42:23.844Z,48.40
2023-04-22T03:44:26.463Z,48.40
2023-04-22T03:46:30.380Z,48.40
2023-04-22T03:48:41.214Z,48.40
2023-04-22T03:50:48.372Z,48.40
2023-04-22T03:52:50.866Z,48.40
2023-04-22T03:54:55.327Z,48.40
2023-04-22T03:56:57.182Z,48.40
2023-04-22T03:59:00.157Z,48.40
2023-04-22T04:01:01.928Z,48.40
2023-04-22T04:03:03.942Z,48.40
2023-04-22T04:05:06.189Z,48.30
2023-04-22T04:07:08.071Z,48.40
2023-04-22T04:09:09.969Z,48.40
2023-04-22T04:11:11.794Z,48.40
2023-04-22T04:13:13.740Z,48.40
2023-04-22T04:15:26.595Z,48.40
2023-04-22T04:17:28.569Z,48.40
2023-04-22T04:19:30.889Z,48.40
2023-04-22T04:21:32.735Z,48.40
2023-04-22T04:23:34.677Z,48.40
2023-04-22T04:25:36.997Z,48.40
2023-04-22T04:27:40.447Z,48.40
2023-04-22T04:29:43.284Z,48.50
2023-04-22T04:31:50.331Z,48.40
2023-04-22T04:33:52.380Z,48.50
2023-04-22T04:35:54.215Z,48.50
2023-04-22T04:38:01.719Z,48.50
2023-04-22T04:40:04.944Z,48.50
2023-04-22T04:42:17.591Z,48.50
2023-04-22T04:44:27.522Z,48.50
2023-04-22T04:46:31.710Z,48.50
2023-04-22T04:48:33.513Z,48.50
2023-04-22T04:50:43.210Z,48.60
2023-04-22T04:52:45.742Z,48.50
2023-04-22T04:54:47.483Z,48.50
2023-04-22T04:56:50.024Z,48.60
2023-04-22T04:58:51.791Z,48.50
2023-04-22T05:00:59.625Z,48.50
2023-04-22T05:03:01.716Z,48.50
2023-04-22T05:05:03.895Z,48.40
2023-04-22T05:07:05.805Z,48.40
2023-04-22T05:09:08.908Z,48.40
2023-04-22T05:11:11.425Z,48.40
2023-04-22T05:13:13.304Z,48.50
2023-04-22T05:15:19.207Z,48.50
2023-04-22T05:17:21.594Z,48.50
2023-04-22T05:19:23.955Z,48.50
2023-04-22T05:21:27.392Z,48.40
2023-04-22T05:23:29.226Z,48.50
2023-04-22T05:25:32.064Z,48.50
2023-04-22T05:27:40.493Z,48.50
2023-04-22T05:29:42.796Z,48.50
2023-04-22T05:31:45.959Z,48.50
2023-04-22T05:33:47.787Z,48.50
2023-04-22T05:35:49.559Z,48.50
2023-04-22T05:37:51.407Z,48.50
2023-04-22T05:39:53.259Z,48.50
2023-04-22T05:41:55.855Z,48.50
2023-04-22T05:43:58.055Z,48.50
2023-04-22T05:46:00.227Z,48.50
2023-04-22T05:48:02.251Z,48.50
2023-04-22T05:50:07.635Z,48.50
2023-04-22T05:52:23.019Z,48.50
2023-04-22T05:54:37.277Z,48.50
2023-04-22T05:56:39.288Z,48.50
2023-04-22T05:58:41.083Z,48.50
2023-04-22T06:00:46.682Z,48.50
2023-04-22T06:03:07.331Z,48.50
2023-04-22T06:05:10.574Z,48.50
2023-04-22T06:07:12.712Z,48.50
2023-04-22T06:09:14.578Z,48.50
2023-04-22T06:11:17.190Z,48.50
2023-04-22T06:13:18.953Z,48.50
2023-04-22T06:15:20.892Z,48.50
2023-04-22T06:17:23.540Z,49.10
2023-04-22T06:19:25.461Z,48.50
2023-04-22T06:21:27.257Z,48.50
2023-04-22T06:23:29.119Z,48.50
2023-04-22T06:25:31.862Z,48.50
2023-04-22T06:27:33.672Z,48.50
2023-04-22T06:29:35.768Z,48.50
2023-04-22T06:31:37.728Z,48.50
2023-04-22T06:33:39.568Z,48.50
2023-04-22T06:35:41.381Z,48.40
2023-04-22T06:37:43.296Z,48.50
2023-04-22T06:39:45.136Z,48.50
2023-04-22T06:42:05.136Z,48.50
2023-04-22T06:44:25.209Z,48.50
2023-04-22T06:46:45.844Z,48.50
2023-04-22T06:49:06.292Z,48.50
2023-04-22T06:51:26.806Z,48.50
2023-04-22T06:53:28.930Z,48.50
2023-04-22T06:55:30.695Z,48.50
2023-04-22T06:57:32.520Z,48.60
2023-04-22T06:59:34.338Z,48.50
2023-04-22T07:01:36.403Z,48.60
2023-04-22T07:03:38.383Z,48.50
2023-04-22T07:05:44.159Z,48.50
2023-04-22T07:07:46.288Z,48.50
2023-04-22T07:09:53.037Z,48.50
2023-04-22T07:11:54.941Z,48.50
2023-04-22T07:13:57.164Z,48.70
2023-04-22T07:15:59.067Z,48.70
2023-04-22T07:18:01.028Z,48.60
2023-04-22T07:20:02.849Z,48.40
2023-04-22T07:24:06.789Z,47.80
2023-04-22T07:26:08.582Z,48.30
2023-04-22T07:28:10.304Z,48.60
2023-04-22T07:30:12.309Z,48.60
2023-04-22T07:32:14.188Z,48.30
2023-04-22T07:34:15.993Z,48.40
2023-04-22T07:36:17.759Z,48.10
2023-04-22T07:38:19.554Z,48.00
2023-04-22T07:40:21.394Z,48.40
2023-04-22T07:42:23.202Z,48.00
2023-04-22T07:44:25.057Z,47.90
2023-04-22T07:46:26.835Z,47.10
2023-04-22T07:48:28.563Z,47.50
2023-04-22T07:50:30.355Z,46.50
2023-04-22T07:52:32.144Z,45.90
2023-04-22T07:54:33.891Z,45.90
2023-04-22T07:56:35.688Z,46.10
2023-04-22T07:58:37.464Z,45.60
2023-04-22T08:00:39.302Z,45.60
2023-04-22T08:02:41.454Z,46.10
2023-04-22T08:04:43.516Z,46.40
2023-04-22T08:06:45.362Z,47.10
2023-04-22T08:08:47.141Z,46.20
2023-04-22T08:10:48.910Z,46.50
2023-04-22T08:12:50.714Z,45.70
2023-04-22T08:14:52.494Z,46.50
2023-04-22T08:16:54.572Z,46.00
2023-04-22T08:18:56.371Z,44.70
2023-04-22T08:20:58.154Z,45.00
2023-04-22T08:22:59.955Z,45.50
2023-04-22T08:25:01.706Z,45.80
2023-04-22T08:27:03.639Z,45.40
2023-04-22T08:29:05.877Z,45.70
2023-04-22T08:31:07.685Z,45.70
2023-04-22T08:33:09.537Z,45.70
2023-04-22T08:35:11.375Z,45.60
2023-04-22T08:37:13.756Z,45.90
2023-04-22T08:39:15.549Z,45.10
2023-04-22T08:41:18.028Z,44.80
2023-04-22T08:43:19.822Z,44.90
2023-04-22T08:45:21.749Z,45.10
2023-04-22T08:47:23.912Z,45.60
2023-04-22T08:49:26.281Z,45.10
2023-04-22T08:51:28.159Z,45.10
2023-04-22T08:53:31.051Z,45.20
2023-04-22T08:55:34.101Z,45.30
2023-04-22T08:57:39.505Z,45.40
2023-04-22T08:59:41.754Z,45.40
2023-04-22T09:01:44.169Z,47.60
2023-04-22T09:03:46.339Z,48.50
2023-04-22T09:05:49.927Z,49.10
2023-04-22T09:07:51.804Z,49.40
2023-04-22T09:09:57.078Z,49.70
2023-04-22T09:11:58.911Z,50.20
2023-04-22T09:14:00.678Z,50.30
2023-04-22T09:16:02.512Z,50.70
2023-04-22T09:18:04.360Z,50.50
2023-04-22T09:20:06.844Z,50.30
2023-04-22T09:22:12.713Z,50.50
2023-04-22T09:24:14.538Z,50.80
2023-04-22T09:26:18.661Z,50.40
2023-04-22T09:28:20.412Z,50.80
2023-04-22T09:30:26.756Z,50.70
2023-04-22T09:32:28.569Z,50.90
2023-04-22T09:34:30.787Z,51.40
2023-04-22T09:36:32.814Z,51.20
2023-04-22T09:38:34.624Z,51.10
2023-04-22T09:40:37.023Z,51.00
2023-04-22T09:42:48.155Z,51.00
2023-04-22T09:44:50.452Z,51.00
2023-04-22T09:46:53.885Z,51.20
2023-04-22T09:48:56.646Z,51.30
2023-04-22T09:50:58.406Z,51.00
2023-04-22T09:53:04.475Z,50.80
2023-04-22T09:55:08.676Z,51.00
2023-04-22T09:57:10.481Z,51.40
2023-04-22T09:59:12.255Z,51.10
2023-04-22T10:01:14.083Z,51.20
2023-04-22T10:03:16.448Z,51.40
2023-04-22T10:05:18.314Z,51.80
2023-04-22T10:07:20.262Z,51.60
2023-04-22T10:09:22.950Z,51.50
2023-04-22T10:11:24.872Z,51.60
2023-04-22T10:13:26.738Z,51.90
2023-04-22T10:15:51.764Z,51.60
2023-04-22T10:17:54.638Z,51.90
2023-04-22T10:19:57.090Z,52.00
2023-04-22T10:22:00.528Z,51.50
2023-04-22T10:24:03.825Z,51.90
2023-04-22T10:26:05.758Z,52.20
2023-04-22T10:28:08.931Z,52.30
2023-04-22T10:30:10.906Z,51.90
2023-04-22T10:32:18.827Z,52.10
2023-04-22T10:34:20.755Z,51.80
2023-04-22T10:36:22.579Z,52.00
2023-04-22T10:38:24.359Z,52.00
2023-04-22T10:40:26.157Z,52.30
2023-04-22T10:42:28.483Z,52.30
2023-04-22T10:44:44.915Z,52.40
2023-04-22T10:46:52.554Z,52.30
2023-04-22T10:48:56.410Z,52.30
2023-04-22T10:50:58.248Z,52.30
2023-04-22T10:53:01.434Z,52.20
2023-04-22T10:55:03.476Z,51.80
2023-04-22T10:57:18.794Z,51.60
2023-04-22T10:59:20.557Z,51.40
2023-04-22T11:01:22.405Z,51.70
2023-04-22T11:03:28.616Z,51.70
2023-04-22T11:05:31.174Z,51.70
2023-04-22T11:07:32.882Z,51.60
2023-04-22T11:09:39.227Z,51.50
2023-04-22T11:11:41.234Z,51.20
2023-04-22T11:13:43.076Z,50.80
2023-04-22T11:15:46.304Z,50.70
2023-04-22T11:17:50.757Z,50.70
2023-04-22T11:19:52.519Z,50.60
2023-04-22T11:21:54.564Z,50.50
2023-04-22T11:23:56.273Z,50.50
2023-04-22T11:25:59.013Z,50.50
2023-04-22T11:28:00.820Z,50.50
2023-04-22T11:30:07.465Z,50.40
2023-04-22T11:32:10.506Z,50.30
2023-04-22T11:34:12.335Z,50.20
2023-04-22T11:36:14.794Z,50.30
2023-04-22T11:38:16.569Z,50.30
2023-04-22T11:42:24.203Z,50.30
2023-04-22T11:44:25.999Z,50.20
2023-04-22T11:46:28.656Z,50.20
2023-04-22T11:48:30.551Z,50.10
2023-04-22T11:50:33.713Z,50.10
2023-04-22T11:52:42.446Z,50.20
2023-04-22T11:54:44.966Z,50.10
2023-04-22T11:56:48.716Z,50.10
2023-04-22T11:58:50.548Z,50.10
2023-04-22T12:00:52.959Z,50.10
2023-04-22T12:02:55.810Z,50.00
2023-04-22T12:04:58.798Z,50.10
2023-04-22T12:07:00.625Z,50.10
2023-04-22T12:09:02.434Z,50.10
2023-04-22T12:11:05.184Z,50.30
2023-04-22T12:13:07.104Z,50.00
2023-04-22T12:15:10.010Z,50.00
2023-04-22T12:17:12.860Z,50.00
2023-04-22T12:19:14.650Z,50.00
2023-04-22T12:21:23.313Z,50.00
2023-04-22T12:23:25.121Z,49.90
2023-04-22T12:25:26.983Z,49.90
2023-04-22T12:27:28.849Z,49.90
2023-04-22T12:29:31.579Z,49.90
2023-04-22T12:31:33.467Z,49.90
2023-04-22T12:33:35.708Z,49.80
2023-04-22T12:35:37.582Z,49.80
2023-04-22T12:37:39.391Z,49.80
2023-04-22T12:39:41.584Z,49.90
2023-04-22T12:41:43.526Z,49.80
2023-04-22T12:43:45.253Z,49.80
2023-04-22T12:45:47.207Z,49.70
2023-04-22T12:47:51.990Z,49.80
2023-04-22T12:49:53.754Z,49.70
2023-04-22T12:51:55.653Z,49.70
2023-04-22T12:53:57.401Z,49.70
2023-04-22T12:55:59.264Z,49.70
2023-04-22T12:58:01.141Z,49.90
2023-04-22T13:00:02.953Z,49.70
2023-04-22T13:02:04.796Z,49.60
2023-04-22T13:04:06.774Z,49.50
2023-04-22T13:06:08.749Z,49.60
2023-04-22T13:08:10.584Z,49.50
2023-04-22T13:10:13.727Z,49.50
2023-04-22T13:12:15.533Z,49.50
2023-04-22T13:14:17.484Z,49.50
2023-04-22T13:16:19.346Z,49.40
2023-04-22T13:18:21.834Z,49.40
2023-04-22T13:20:23.608Z,49.40
2023-04-22T13:22:25.425Z,49.50
2023-04-22T13:24:27.144Z,50.10
2023-04-22T13:26:28.963Z,49.50
2023-04-22T13:28:30.729Z,49.40
2023-04-22T13:30:32.860Z,49.40
2023-04-22T13:32:34.701Z,49.40
2023-04-22T13:34:36.536Z,49.40
2023-04-22T13:36:38.341Z,49.40
2023-04-22T13:38:40.092Z,49.40
2023-04-22T13:40:41.851Z,49.40
2023-04-22T13:42:43.568Z,49.40
2023-04-22T13:44:45.370Z,49.40
2023-04-22T13:46:47.136Z,49.40
2023-04-22T13:48:48.858Z,49.40
2023-04-22T13:50:50.662Z,49.40
2023-04-22T13:52:52.467Z,49.40
2023-04-22T13:54:54.172Z,49.40
2023-04-22T13:56:55.986Z,49.40
2023-04-22T13:58:58.303Z,49.40
2023-04-22T14:01:00.251Z,49.40
2023-04-22T14:03:03.648Z,49.40
2023-04-22T14:05:05.739Z,49.40
2023-04-22T14:07:07.599Z,49.30
2023-04-22T14:09:09.392Z,49.20
2023-04-22T14:11:11.229Z,49.20
2023-04-22T14:13:13.132Z,49.20
2023-04-22T14:15:14.872Z,49.20
2023-04-22T14:17:16.686Z,49.20
2023-04-22T14:19:18.498Z,49.20
2023-04-22T14:21:20.295Z,49.20
2023-04-22T14:23:22.040Z,49.20
2023-04-22T14:25:23.857Z,49.20
2023-04-22T14:27:26.074Z,49.20
2023-04-22T14:29:27.839Z,49.20
2023-04-22T14:31:29.657Z,49.20
2023-04-22T14:33:31.702Z,49.10
2023-04-22T14:35:34.135Z,49.10
2023-04-22T14:37:36.504Z,49.20
2023-04-22T14:39:38.603Z,49.20
2023-04-22T14:41:40.735Z,49.20
2023-04-22T14:43:42.502Z,49.30
2023-04-22T14:45:45.348Z,49.30
2023-04-22T14:47:47.198Z,49.30
2023-04-22T14:49:49.028Z,49.30
2023-04-22T14:51:50.797Z,49.30
2023-04-22T14:53:52.566Z,49.30
2023-04-22T14:55:54.378Z,49.30
2023-04-22T14:57:58.056Z,49.30
2023-04-22T14:59:59.775Z,49.30
2023-04-22T15:02:01.724Z,49.20
2023-04-22T15:04:03.622Z,49.20
2023-04-22T15:06:05.466Z,49.20
2023-04-22T15:08:07.263Z,49.20
2023-04-22T15:10:09.189Z,49.20
2023-04-22T15:12:10.943Z,49.20
2023-04-22T15:14:12.764Z,49.20
2023-04-22T15:16:14.592Z,49.20
2023-04-22T15:18:16.345Z,49.20
2023-04-22T15:20:18.154Z,49.20
2023-04-22T15:22:19.912Z,49.20
2023-04-22T15:24:21.767Z,49.20
2023-04-22T15:26:23.486Z,49.20
2023-04-22T15:28:25.246Z,49.10
2023-04-22T15:30:27.034Z,49.20
2023-04-22T15:32:28.777Z,49.10
2023-04-22T15:34:30.579Z,49.10
2023-04-22T15:36:32.427Z,49.10
2023-04-22T15:38:34.194Z,49.20
2023-04-22T15:40:36.002Z,49.10
2023-04-22T15:42:37.777Z,49.10
2023-04-22T15:44:39.588Z,49.20
2023-04-22T15:46:41.520Z,49.10
2023-04-22T15:48:43.550Z,49.10
2023-04-22T15:50:45.312Z,49.10
2023-04-22T15:52:47.066Z,49.10
2023-04-22T15:54:48.824Z,49.10
2023-04-22T15:56:50.618Z,49.00
2023-04-22T15:58:52.726Z,49.00
2023-04-22T16:00:56.311Z,49.10
2023-04-22T16:02:59.780Z,49.00
2023-04-22T16:05:02.084Z,49.00
2023-04-22T16:07:03.859Z,49.00
2023-04-22T16:09:05.688Z,49.00
2023-04-22T16:11:07.519Z,49.00
2023-04-22T16:13:10.096Z,49.00
2023-04-22T16:15:11.977Z,49.10
2023-04-22T16:17:14.331Z,49.00
2023-04-22T16:19:16.090Z,49.10
2023-04-22T16:21:17.861Z,49.10
2023-04-22T16:23:19.609Z,49.10
2023-04-22T16:25:21.435Z,49.00
2023-04-22T16:27:23.196Z,49.10
2023-04-22T16:29:24.944Z,49.00
2023-04-22T16:31:26.776Z,49.00
2023-04-22T16:33:28.694Z,49.00
2023-04-22T16:35:31.054Z,49.00
2023-04-22T16:37:33.217Z,49.10
2023-04-22T16:39:34.971Z,49.00
2023-04-22T16:41:37.063Z,49.10
2023-04-22T16:43:40.860Z,49.00
2023-04-22T16:45:43.087Z,49.00
2023-04-22T16:47:46.065Z,49.00
2023-04-22T16:49:47.846Z,49.20
2023-04-22T16:51:49.662Z,49.10
2023-04-22T16:53:51.433Z,49.20
2023-04-22T16:55:53.251Z,49.30
2023-04-22T16:57:54.987Z,49.30
2023-04-22T16:59:56.747Z,49.20
2023-04-22T17:01:58.714Z,49.10
2023-04-22T17:04:00.627Z,49.00
2023-04-22T17:06:02.649Z,49.00
2023-04-22T17:08:04.488Z,49.00
2023-04-22T17:10:06.671Z,49.00
2023-04-22T17:12:08.509Z,48.90
2023-04-22T17:14:10.339Z,48.80
2023-04-22T17:16:12.166Z,49.10
2023-04-22T17:18:15.100Z,48.80
2023-04-22T17:20:18.158Z,48.80
2023-04-22T17:22:19.930Z,48.80
2023-04-22T17:24:22.476Z,48.70
2023-04-22T17:26:24.416Z,48.80
2023-04-22T17:28:26.203Z,48.80
2023-04-22T17:30:27.960Z,48.70
2023-04-22T17:32:29.823Z,48.70
2023-04-22T17:34:31.652Z,48.80
2023-04-22T17:36:33.446Z,48.80
2023-04-22T17:38:35.547Z,48.70
2023-04-22T17:40:37.258Z,48.70
2023-04-22T17:42:45.581Z,48.70
2023-04-22T17:44:47.888Z,48.80
2023-04-22T17:46:49.724Z,48.70
2023-04-22T17:48:51.587Z,48.60
2023-04-22T17:50:53.373Z,48.60
2023-04-22T17:52:55.145Z,48.70
2023-04-22T17:54:59.352Z,48.70
2023-04-22T17:57:01.600Z,48.70
2023-04-22T17:59:03.403Z,48.70
2023-04-22T18:01:06.170Z,48.60
2023-04-22T18:03:08.666Z,48.70
2023-04-22T18:05:10.614Z,48.70
2023-04-22T18:07:12.394Z,48.70
2023-04-22T18:09:14.165Z,48.70
2023-04-22T18:11:15.958Z,48.70
2023-04-22T18:13:17.778Z,48.60
2023-04-22T18:15:19.567Z,48.60
2023-04-22T18:17:21.305Z,48.70
2023-04-22T18:19:23.144Z,48.70
2023-04-22T18:21:24.911Z,48.80
2023-04-22T18:23:26.767Z,48.60
2023-04-22T18:25:28.591Z,48.70
2023-04-22T18:27:30.360Z,48.70
2023-04-22T18:29:32.112Z,48.70
2023-04-22T18:31:34.153Z,48.60
2023-04-22T18:33:35.992Z,48.70
2023-04-22T18:35:37.736Z,48.70
2023-04-22T18:37:39.571Z,48.70
2023-04-22T18:39:41.356Z,48.70
2023-04-22T18:41:43.352Z,48.70
2023-04-22T18:43:45.150Z,48.70
2023-04-22T18:45:46.923Z,48.80
2023-04-22T18:47:49.251Z,48.70
2023-04-22T18:49:51.010Z,48.70
2023-04-22T18:51:52.848Z,48.80
2023-04-22T18:53:54.718Z,48.80
2023-04-22T18:55:56.537Z,48.80
2023-04-22T18:57:58.343Z,48.70
2023-04-22T19:00:00.144Z,48.70
2023-04-22T19:02:01.956Z,48.70
2023-04-22T19:04:03.787Z,48.70
2023-04-22T19:06:05.684Z,48.70
2023-04-22T19:08:07.407Z,48.70
2023-04-22T19:10:09.571Z,48.70
2023-04-22T19:12:11.310Z,48.70
2023-04-22T19:14:13.097Z,48.80
2023-04-22T19:16:14.993Z,48.70
2023-04-22T19:18:16.809Z,48.70
2023-04-22T19:20:18.633Z,48.70
2023-04-22T19:22:21.076Z,48.70
2023-04-22T19:24:22.864Z,48.70
2023-04-22T19:26:24.866Z,48.80
2023-04-22T19:28:26.675Z,48.80
2023-04-22T19:30:28.398Z,48.80
2023-04-22T19:32:30.308Z,48.80
2023-04-22T19:34:32.041Z,48.70
2023-04-22T19:36:33.883Z,48.70
2023-04-22T19:38:35.695Z,48.80
2023-04-22T19:40:37.750Z,48.70
2023-04-22T19:42:39.718Z,48.70
2023-04-22T19:44:41.485Z,48.70
2023-04-22T19:46:43.308Z,48.70
2023-04-22T19:48:45.306Z,48.70
2023-04-22T19:50:48.976Z,48.70
2023-04-22T19:52:50.879Z,48.70
2023-04-22T19:54:52.784Z,48.70
2023-04-22T19:56:55.055Z,48.70
2023-04-22T19:58:57.048Z,48.70
2023-04-22T20:00:58.909Z,48.70
2023-04-22T20:03:01.512Z,48.70
2023-04-22T20:05:03.940Z,48.70
2023-04-22T20:07:06.135Z,48.70
2023-04-22T20:09:07.987Z,48.70
2023-04-22T20:11:10.141Z,48.70
2023-04-22T20:13:12.058Z,48.70
2023-04-22T20:15:13.954Z,48.60
2023-04-22T20:17:15.926Z,48.70
2023-04-22T20:19:17.863Z,48.70
2023-04-22T20:21:19.901Z,48.70
2023-04-22T20:23:22.242Z,48.60
2023-04-22T20:25:24.162Z,48.60
2023-04-22T20:27:25.913Z,48.60
2023-04-22T20:29:27.794Z,48.60
2023-04-22T20:31:29.677Z,48.60
2023-04-22T20:33:31.646Z,48.60
2023-04-22T20:35:33.615Z,48.60
2023-04-22T20:37:35.850Z,48.60
2023-04-22T20:39:38.311Z,48.60
2023-04-22T20:41:40.200Z,48.60
2023-04-22T20:43:42.024Z,48.60
2023-04-22T20:45:43.833Z,48.60
2023-04-22T20:47:45.679Z,48.60
2023-04-22T20:49:47.554Z,48.60
2023-04-22T20:51:49.280Z,48.60
2023-04-22T20:53:51.088Z,48.60
2023-04-22T20:55:52.806Z,48.60
2023-04-22T20:57:54.683Z,48.60
2023-04-22T20:59:56.449Z,48.60
2023-04-22T21:01:58.825Z,48.60
2023-04-22T21:04:01.463Z,48.60
2023-04-22T21:06:03.614Z,48.60
2023-04-22T21:08:07.905Z,48.60
2023-04-22T21:10:09.955Z,48.60
2023-04-22T21:12:11.999Z,48.50
2023-04-22T21:14:13.862Z,48.50
2023-04-22T21:16:18.432Z,48.60
2023-04-22T21:18:21.176Z,48.60
2023-04-22T21:20:24.070Z,48.50
2023-04-22T21:22:25.935Z,48.50
2023-04-22T21:24:28.138Z,48.50
2023-04-22T21:26:30.186Z,48.50
2023-04-22T21:28:32.108Z,48.50
2023-04-22T21:30:34.211Z,48.50
2023-04-22T21:32:35.980Z,48.50
2023-04-22T21:34:38.079Z,48.50
2023-04-22T21:36:39.977Z,48.50
2023-04-22T21:38:41.802Z,49.10
2023-04-22T21:40:43.561Z,48.60
2023-04-22T21:42:45.599Z,48.50
2023-04-22T21:44:47.506Z,48.50
2023-04-22T21:46:49.302Z,48.50
2023-04-22T21:48:51.065Z,48.60
2023-04-22T21:50:52.905Z,48.60
2023-04-22T21:52:54.671Z,48.60
2023-04-22T21:54:56.478Z,48.60
2023-04-22T21:56:58.306Z,48.60
2023-04-22T21:59:00.446Z,48.60
2023-04-22T22:01:04.162Z,48.60
2023-04-22T22:03:07.906Z,48.60
2023-04-22T22:05:10.196Z,48.60
2023-04-22T22:07:11.961Z,48.60
2023-04-22T22:09:13.794Z,48.70
2023-04-22T22:11:27.469Z,48.70
2023-04-22T22:13:32.956Z,48.70
2023-04-22T22:15:34.775Z,48.70
2023-04-22T22:17:36.938Z,48.70
2023-04-22T22:19:38.701Z,48.60
2023-04-22T22:21:40.510Z,48.60
2023-04-22T22:23:42.354Z,48.60
2023-04-22T22:25:44.235Z,48.70
2023-04-22T22:27:46.190Z,48.70
2023-04-22T22:29:47.904Z,48.70
2023-04-22T22:31:49.755Z,48.60
2023-04-22T22:33:51.565Z,48.60
2023-04-22T22:35:53.290Z,48.60
2023-04-22T22:37:55.201Z,48.70
2023-04-22T22:39:57.003Z,48.60
2023-04-22T22:41:58.754Z,48.60
2023-04-22T22:44:00.639Z,48.60
2023-04-22T22:46:02.533Z,48.60
2023-04-22T22:48:04.572Z,48.60
2023-04-22T22:50:06.746Z,48.60
2023-04-22T22:52:08.533Z,48.60
2023-04-22T22:54:10.388Z,48.60
2023-04-22T22:56:12.197Z,48.60
2023-04-22T22:58:13.972Z,48.60
2023-04-22T23:00:15.850Z,48.60
2023-04-22T23:02:17.788Z,48.60
2023-04-22T23:04:19.903Z,48.60
2023-04-22T23:06:21.935Z,48.60
2023-04-22T23:08:23.887Z,48.60
2023-04-22T23:10:25.636Z,48.60
2023-04-22T23:12:27.410Z,48.90
2023-04-22T23:14:29.243Z,48.60
2023-04-22T23:16:31.077Z,48.60
2023-04-22T23:18:33.930Z,48.60
2023-04-22T23:20:36.143Z,48.60
2023-04-22T23:22:38.840Z,48.70
2023-04-22T23:24:40.926Z,48.70
2023-04-22T23:26:42.965Z,48.70
2023-04-22T23:28:45.018Z,48.60
2023-04-22T23:30:48.684Z,48.60
2023-04-22T23:32:51.255Z,48.60
2023-04-22T23:34:53.638Z,48.70
2023-04-22T23:36:57.189Z,48.60
2023-04-22T23:39:01.892Z,48.70
2023-04-22T23:41:03.714Z,48.60
2023-04-22T23:43:05.432Z,48.60
2023-04-22T23:45:07.526Z,48.70
2023-04-22T23:47:09.332Z,48.70
2023-04-22T23:49:11.166Z,48.60
2023-04-22T23:51:13.024Z,48.60
2023-04-22T23:53:14.763Z,48.60
2023-04-22T23:55:16.684Z,48.70
2023-04-22T23:57:18.598Z,48.60
2023-04-22T23:59:20.526Z,48.60
